sensor_id;sensor_type;location;lat;lon;timestamp;pressure;altitude;pressure_sealevel;temperature;humidity
17781;BME280;8498;52.516;13.790;2022-10-19T00:03:41;102015.59;;;13.73;85.81
17781;BME280;8498;52.516;13.790;2022-10-19T00:14:29;102010.72;;;13.66;86.59
17781;BME280;8498;52.516;13.790;2022-10-19T00:19:52;102014.94;;;13.70;86.41
17781;BME280;8498;52.516;13.790;2022-10-19T00:25:14;102021.97;;;13.71;86.48
17781;BME280;8498;52.516;13.790;2022-10-19T00:30:36;102025.44;;;13.73;86.92
17781;BME280;8498;52.516;13.790;2022-10-19T00:35:59;102016.56;;;13.72;86.95
17781;BME280;8498;52.516;13.790;2022-10-19T00:41:26;102020.09;;;13.73;87.34
17781;BME280;8498;52.516;13.790;2022-10-19T00:46:48;102011.81;;;13.77;86.83
17781;BME280;8498;52.516;13.790;2022-10-19T00:52:17;102027.66;;;13.80;86.65
17781;BME280;8498;52.516;13.790;2022-10-19T00:57:40;102021.44;;;13.80;86.52
17781;BME280;8498;52.516;13.790;2022-10-19T01:03:04;102016.75;;;13.83;86.73
17781;BME280;8498;52.516;13.790;2022-10-19T01:08:27;102020.38;;;13.82;86.65
17781;BME280;8498;52.516;13.790;2022-10-19T01:42:35;101990.56;;;13.60;83.05
17781;BME280;8498;52.516;13.790;2022-10-19T01:48:11;102004.44;;;13.67;82.64
17781;BME280;8498;52.516;13.790;2022-10-19T01:53:41;101994.75;;;13.80;81.16
17781;BME280;8498;52.516;13.790;2022-10-19T01:59:06;101986.81;;;13.78;80.97
17781;BME280;8498;52.516;13.790;2022-10-19T02:04:31;101989.09;;;13.84;80.90
17781;BME280;8498;52.516;13.790;2022-10-19T02:09:55;101976.44;;;13.88;80.92
17781;BME280;8498;52.516;13.790;2022-10-19T02:15:21;101978.03;;;13.76;80.00
17781;BME280;8498;52.516;13.790;2022-10-19T02:20:45;101980.13;;;13.85;80.33
17781;BME280;8498;52.516;13.790;2022-10-19T02:26:08;101981.47;;;13.92;80.07
17781;BME280;8498;52.516;13.790;2022-10-19T02:31:30;101973.00;;;13.86;79.71
17781;BME280;8498;52.516;13.790;2022-10-19T02:36:53;101985.88;;;13.93;79.24
17781;BME280;8498;52.516;13.790;2022-10-19T02:42:26;101978.63;;;13.95;78.79
17781;BME280;8498;52.516;13.790;2022-10-19T02:48:01;101976.25;;;13.91;77.96
17781;BME280;8498;52.516;13.790;2022-10-19T02:53:25;101986.72;;;13.94;78.61
17781;BME280;8498;52.516;13.790;2022-10-19T02:58:47;101983.28;;;13.92;79.04
17781;BME280;8498;52.516;13.790;2022-10-19T03:04:10;101984.16;;;13.92;78.78
17781;BME280;8498;52.516;13.790;2022-10-19T03:09:32;101989.31;;;13.95;78.64
17781;BME280;8498;52.516;13.790;2022-10-19T03:14:54;101987.97;;;13.88;78.57
17781;BME280;8498;52.516;13.790;2022-10-19T03:20:16;101989.88;;;13.86;78.44
17781;BME280;8498;52.516;13.790;2022-10-19T03:25:39;101985.22;;;13.90;78.68
17781;BME280;8498;52.516;13.790;2022-10-19T03:31:01;101987.75;;;13.91;78.70
17781;BME280;8498;52.516;13.790;2022-10-19T03:36:26;101990.56;;;13.90;79.17
17781;BME280;8498;52.516;13.790;2022-10-19T03:41:48;101995.03;;;13.89;79.21
17781;BME280;8498;52.516;13.790;2022-10-19T03:47:11;101987.28;;;13.85;79.44
17781;BME280;8498;52.516;13.790;2022-10-19T03:52:33;101998.06;;;13.83;79.68
17781;BME280;8498;52.516;13.790;2022-10-19T03:57:56;102001.25;;;13.90;79.78
17781;BME280;8498;52.516;13.790;2022-10-19T04:03:19;102006.59;;;13.90;79.85
17781;BME280;8498;52.516;13.790;2022-10-19T04:08:42;102008.78;;;13.98;79.85
17781;BME280;8498;52.516;13.790;2022-10-19T04:14:04;102015.63;;;13.87;79.61
17781;BME280;8498;52.516;13.790;2022-10-19T04:19:27;102010.13;;;13.90;79.83
17781;BME280;8498;52.516;13.790;2022-10-19T04:24:49;102024.78;;;13.83;79.30
17781;BME280;8498;52.516;13.790;2022-10-19T04:30:11;102026.31;;;13.87;79.37
17781;BME280;8498;52.516;13.790;2022-10-19T04:35:34;102032.31;;;13.77;79.94
17781;BME280;8498;52.516;13.790;2022-10-19T04:41:04;102032.13;;;13.80;78.84
17781;BME280;8498;52.516;13.790;2022-10-19T04:46:27;102037.81;;;13.74;78.91
17781;BME280;8498;52.516;13.790;2022-10-19T04:51:50;102035.63;;;13.66;79.16
17781;BME280;8498;52.516;13.790;2022-10-19T04:57:13;102049.69;;;13.54;79.45
17781;BME280;8498;52.516;13.790;2022-10-19T05:02:35;102052.34;;;13.70;79.31
17781;BME280;8498;52.516;13.790;2022-10-19T05:07:57;102053.69;;;13.77;79.24
17781;BME280;8498;52.516;13.790;2022-10-19T05:13:20;102054.88;;;13.71;79.30
17781;BME280;8498;52.516;13.790;2022-10-19T05:18:46;102062.28;;;13.52;79.51
17781;BME280;8498;52.516;13.790;2022-10-19T05:24:10;102066.00;;;13.49;79.89
17781;BME280;8498;52.516;13.790;2022-10-19T05:29:33;102056.38;;;13.61;79.55
17781;BME280;8498;52.516;13.790;2022-10-19T05:34:56;102064.28;;;13.48;79.88
17781;BME280;8498;52.516;13.790;2022-10-19T05:40:18;102069.50;;;13.50;79.74
17781;BME280;8498;52.516;13.790;2022-10-19T05:45:40;102078.91;;;13.57;79.47
17781;BME280;8498;52.516;13.790;2022-10-19T05:51:05;102077.00;;;13.59;79.49
17781;BME280;8498;52.516;13.790;2022-10-19T05:56:29;102089.91;;;13.51;79.82
17781;BME280;8498;52.516;13.790;2022-10-19T06:01:51;102084.53;;;13.37;80.80
17781;BME280;8498;52.516;13.790;2022-10-19T06:07:14;102086.06;;;13.41;80.88
17781;BME280;8498;52.516;13.790;2022-10-19T06:12:36;102084.78;;;13.32;81.72
17781;BME280;8498;52.516;13.790;2022-10-19T06:17:58;102096.81;;;13.39;81.65
17781;BME280;8498;52.516;13.790;2022-10-19T06:23:21;102097.47;;;13.29;82.87
17781;BME280;8498;52.516;13.790;2022-10-19T06:28:44;102103.38;;;13.34;83.17
17781;BME280;8498;52.516;13.790;2022-10-19T06:34:06;102100.19;;;13.43;83.26
17781;BME280;8498;52.516;13.790;2022-10-19T06:39:29;102094.53;;;13.63;82.87
17781;BME280;8498;52.516;13.790;2022-10-19T06:44:51;102088.66;;;13.72;82.14
17781;BME280;8498;52.516;13.790;2022-10-19T06:50:13;102102.97;;;13.71;82.70
17781;BME280;8498;52.516;13.790;2022-10-19T06:55:36;102118.81;;;13.74;82.69
17781;BME280;8498;52.516;13.790;2022-10-19T07:00:59;102121.16;;;13.80;82.45
17781;BME280;8498;52.516;13.790;2022-10-19T07:06:22;102133.66;;;13.80;82.25
17781;BME280;8498;52.516;13.790;2022-10-19T07:11:44;102130.28;;;13.76;81.94
17781;BME280;8498;52.516;13.790;2022-10-19T07:17:09;102137.50;;;13.74;81.89
17781;BME280;8498;52.516;13.790;2022-10-19T07:22:32;102150.34;;;13.83;81.94
17781;BME280;8498;52.516;13.790;2022-10-19T07:27:54;102154.56;;;13.87;81.62
17781;BME280;8498;52.516;13.790;2022-10-19T07:33:17;102151.09;;;13.85;81.63
17781;BME280;8498;52.516;13.790;2022-10-19T07:38:40;102166.03;;;13.89;81.35
17781;BME280;8498;52.516;13.790;2022-10-19T07:44:02;102159.94;;;14.02;81.69
17781;BME280;8498;52.516;13.790;2022-10-19T07:49:25;102164.75;;;14.11;81.78
17781;BME280;8498;52.516;13.790;2022-10-19T07:54:47;102173.03;;;14.06;82.20
17781;BME280;8498;52.516;13.790;2022-10-19T08:00:11;102169.72;;;14.17;82.29
17781;BME280;8498;52.516;13.790;2022-10-19T08:05:34;102167.09;;;14.31;81.64
17781;BME280;8498;52.516;13.790;2022-10-19T08:10:56;102166.50;;;14.26;80.78
17781;BME280;8498;52.516;13.790;2022-10-19T08:16:35;102170.19;;;14.39;80.77
17781;BME280;8498;52.516;13.790;2022-10-19T08:21:58;102172.53;;;14.59;80.54
17781;BME280;8498;52.516;13.790;2022-10-19T08:27:20;102172.31;;;14.48;79.42
17781;BME280;8498;52.516;13.790;2022-10-19T08:32:43;102176.88;;;14.46;79.61
17781;BME280;8498;52.516;13.790;2022-10-19T08:38:05;102176.16;;;14.58;79.62
17781;BME280;8498;52.516;13.790;2022-10-19T08:43:35;102178.66;;;14.61;78.64
17781;BME280;8498;52.516;13.790;2022-10-19T08:49:00;102182.25;;;14.46;79.81
17781;BME280;8498;52.516;13.790;2022-10-19T08:54:31;102193.72;;;14.77;78.99
17781;BME280;8498;52.516;13.790;2022-10-19T09:05:49;102191.09;;;15.05;77.72
17781;BME280;8498;52.516;13.790;2022-10-19T09:11:16;102197.28;;;15.20;77.69
17781;BME280;8498;52.516;13.790;2022-10-19T09:16:42;102196.06;;;14.83;78.06
17781;BME280;8498;52.516;13.790;2022-10-19T09:22:07;102193.56;;;14.80;77.48
17781;BME280;8498;52.516;13.790;2022-10-19T09:27:36;102202.53;;;15.07;76.50
17781;BME280;8498;52.516;13.790;2022-10-19T09:33:01;102210.38;;;15.10;75.11
17781;BME280;8498;52.516;13.790;2022-10-19T09:38:26;102215.53;;;15.13;74.49
17781;BME280;8498;52.516;13.790;2022-10-19T09:43:52;102209.88;;;15.46;72.88
17781;BME280;8498;52.516;13.790;2022-10-19T09:49:15;102216.44;;;15.69;73.04
17781;BME280;8498;52.516;13.790;2022-10-19T09:54:38;102220.63;;;15.73;72.25
17781;BME280;8498;52.516;13.790;2022-10-19T10:00:00;102225.13;;;15.72;70.90
17781;BME280;8498;52.516;13.790;2022-10-19T10:05:37;102228.59;;;15.74;71.04
17781;BME280;8498;52.516;13.790;2022-10-19T10:16:29;102228.31;;;15.65;69.93
17781;BME280;8498;52.516;13.790;2022-10-19T10:21:56;102224.41;;;16.10;69.08
17781;BME280;8498;52.516;13.790;2022-10-19T10:27:37;102217.16;;;16.25;65.71
17781;BME280;8498;52.516;13.790;2022-10-19T10:33:00;102210.53;;;16.70;64.36
17781;BME280;8498;52.516;13.790;2022-10-19T10:38:49;102206.50;;;17.26;61.83
17781;BME280;8498;52.516;13.790;2022-10-19T10:44:17;102209.13;;;16.90;60.82
17781;BME280;8498;52.516;13.790;2022-10-19T10:49:41;102207.78;;;16.57;61.99
17781;BME280;8498;52.516;13.790;2022-10-19T11:00:29;102219.75;;;16.26;62.64
17781;BME280;8498;52.516;13.790;2022-10-19T11:05:58;102223.09;;;16.30;63.25
17781;BME280;8498;52.516;13.790;2022-10-19T11:16:51;102211.91;;;17.01;60.12
17781;BME280;8498;52.516;13.790;2022-10-19T11:34:02;102213.75;;;17.49;57.58
17781;BME280;8498;52.516;13.790;2022-10-19T11:45:24;102204.91;;;17.11;58.68
17781;BME280;8498;52.516;13.790;2022-10-19T12:13:41;102200.53;;;16.84;61.37
17781;BME280;8498;52.516;13.790;2022-10-19T12:19:11;102200.22;;;17.02;60.56
17781;BME280;8498;52.516;13.790;2022-10-19T12:24:36;102189.44;;;17.64;57.86
17781;BME280;8498;52.516;13.790;2022-10-19T12:30:03;102203.66;;;17.53;57.80
17781;BME280;8498;52.516;13.790;2022-10-19T12:41:55;102186.78;;;18.57;54.66
17781;BME280;8498;52.516;13.790;2022-10-19T12:47:22;102176.34;;;18.53;54.59
17781;BME280;8498;52.516;13.790;2022-10-19T12:52:47;102178.50;;;18.02;57.17
17781;BME280;8498;52.516;13.790;2022-10-19T12:58:20;102180.44;;;17.52;57.77
17781;BME280;8498;52.516;13.790;2022-10-19T13:03:43;102178.19;;;17.82;57.96
17781;BME280;8498;52.516;13.790;2022-10-19T13:09:32;102177.88;;;18.68;56.48
17781;BME280;8498;52.516;13.790;2022-10-19T13:15:00;102187.28;;;18.74;54.39
17781;BME280;8498;52.516;13.790;2022-10-19T13:20:39;102181.03;;;18.73;53.92
17781;BME280;8498;52.516;13.790;2022-10-19T13:26:32;102169.66;;;18.92;52.55
17781;BME280;8498;52.516;13.790;2022-10-19T13:38:21;102168.88;;;19.46;52.08
17781;BME280;8498;52.516;13.790;2022-10-19T13:43:53;102172.97;;;19.51;51.27
17781;BME280;8498;52.516;13.790;2022-10-19T14:01:04;102165.97;;;17.66;53.13
17781;BME280;8498;52.516;13.790;2022-10-19T14:06:43;102152.63;;;17.40;55.18
17781;BME280;8498;52.516;13.790;2022-10-19T14:12:20;102154.19;;;17.19;56.07
17781;BME280;8498;52.516;13.790;2022-10-19T14:17:44;102157.38;;;17.24;57.46
17781;BME280;8498;52.516;13.790;2022-10-19T14:28:40;102149.41;;;16.86;59.80
17781;BME280;8498;52.516;13.790;2022-10-19T14:34:06;102150.72;;;16.80;59.42
17781;BME280;8498;52.516;13.790;2022-10-19T14:39:32;102145.78;;;16.62;59.45
17781;BME280;8498;52.516;13.790;2022-10-19T14:44:59;102144.88;;;16.61;60.51
17781;BME280;8498;52.516;13.790;2022-10-19T14:50:26;102141.03;;;16.52;60.92
17781;BME280;8498;52.516;13.790;2022-10-19T14:55:53;102142.44;;;16.45;59.52
17781;BME280;8498;52.516;13.790;2022-10-19T15:01:18;102144.88;;;16.36;60.87
17781;BME280;8498;52.516;13.790;2022-10-19T15:06:41;102140.16;;;16.27;58.61
17781;BME280;8498;52.516;13.790;2022-10-19T15:12:12;102131.56;;;16.22;59.36
17781;BME280;8498;52.516;13.790;2022-10-19T15:17:48;102136.69;;;16.12;60.68
17781;BME280;8498;52.516;13.790;2022-10-19T15:23:33;102146.00;;;15.94;61.78
17781;BME280;8498;52.516;13.790;2022-10-19T15:29:09;102140.44;;;15.70;63.99
17781;BME280;8498;52.516;13.790;2022-10-19T15:34:32;102141.63;;;15.52;65.17
17781;BME280;8498;52.516;13.790;2022-10-19T15:39:55;102143.38;;;15.38;66.05
17781;BME280;8498;52.516;13.790;2022-10-19T15:50:50;102146.91;;;14.98;67.84
17781;BME280;8498;52.516;13.790;2022-10-19T15:56:13;102148.06;;;14.80;68.58
17781;BME280;8498;52.516;13.790;2022-10-19T16:01:38;102162.97;;;14.69;69.21
17781;BME280;8498;52.516;13.790;2022-10-19T16:07:00;102166.97;;;14.48;69.70
17781;BME280;8498;52.516;13.790;2022-10-19T16:12:24;102167.28;;;14.28;70.34
17781;BME280;8498;52.516;13.790;2022-10-19T16:17:49;102170.44;;;14.05;70.89
17781;BME280;8498;52.516;13.790;2022-10-19T16:23:11;102167.13;;;13.85;71.08
17781;BME280;8498;52.516;13.790;2022-10-19T16:28:35;102171.75;;;13.68;71.87
17781;BME280;8498;52.516;13.790;2022-10-19T16:33:58;102175.47;;;13.49;72.00
17781;BME280;8498;52.516;13.790;2022-10-19T16:39:20;102178.13;;;13.34;72.44
17781;BME280;8498;52.516;13.790;2022-10-19T16:44:43;102190.50;;;13.19;72.89
17781;BME280;8498;52.516;13.790;2022-10-19T16:50:05;102185.28;;;13.00;73.33
17781;BME280;8498;52.516;13.790;2022-10-19T16:55:28;102183.38;;;12.86;73.32
17781;BME280;8498;52.516;13.790;2022-10-19T17:00:50;102188.88;;;12.83;72.82
17781;BME280;8498;52.516;13.790;2022-10-19T17:06:14;102196.19;;;12.63;73.18
17781;BME280;8498;52.516;13.790;2022-10-19T17:11:37;102201.56;;;12.45;73.63
17781;BME280;8498;52.516;13.790;2022-10-19T17:17:02;102200.91;;;12.40;73.21
17781;BME280;8498;52.516;13.790;2022-10-19T17:22:24;102220.53;;;12.22;73.95
17781;BME280;8498;52.516;13.790;2022-10-19T17:27:49;102216.41;;;12.15;73.71
17781;BME280;8498;52.516;13.790;2022-10-19T17:33:12;102220.66;;;12.02;74.10
17781;BME280;8498;52.516;13.790;2022-10-19T17:38:35;102222.34;;;11.86;74.33
17781;BME280;8498;52.516;13.790;2022-10-19T17:43:57;102223.91;;;11.90;73.67
17781;BME280;8498;52.516;13.790;2022-10-19T17:49:20;102225.72;;;11.70;74.22
17781;BME280;8498;52.516;13.790;2022-10-19T17:54:43;102233.91;;;11.66;73.99
17781;BME280;8498;52.516;13.790;2022-10-19T18:00:25;102237.94;;;11.56;74.20
17781;BME280;8498;52.516;13.790;2022-10-19T18:05:59;102238.25;;;11.31;74.97
17781;BME280;8498;52.516;13.790;2022-10-19T18:11:29;102234.06;;;11.25;74.78
17781;BME280;8498;52.516;13.790;2022-10-19T18:16:52;102238.94;;;11.16;74.80
17781;BME280;8498;52.516;13.790;2022-10-19T18:22:14;102240.25;;;11.07;75.11
17781;BME280;8498;52.516;13.790;2022-10-19T18:27:37;102240.66;;;10.98;74.91
17781;BME280;8498;52.516;13.790;2022-10-19T18:32:59;102241.78;;;10.92;74.76
17781;BME280;8498;52.516;13.790;2022-10-19T18:38:21;102236.69;;;10.88;74.50
17781;BME280;8498;52.516;13.790;2022-10-19T18:43:49;102240.63;;;10.79;74.59
17781;BME280;8498;52.516;13.790;2022-10-19T18:49:12;102247.28;;;10.69;74.29
17781;BME280;8498;52.516;13.790;2022-10-19T18:54:34;102249.44;;;10.59;74.73
17781;BME280;8498;52.516;13.790;2022-10-19T18:59:57;102247.72;;;10.58;74.40
17781;BME280;8498;52.516;13.790;2022-10-19T19:05:20;102236.50;;;10.52;74.45
17781;BME280;8498;52.516;13.790;2022-10-19T19:10:42;102242.19;;;10.43;74.45
17781;BME280;8498;52.516;13.790;2022-10-19T19:16:07;102249.63;;;10.35;74.32
17781;BME280;8498;52.516;13.790;2022-10-19T19:21:30;102246.28;;;10.29;74.51
17781;BME280;8498;52.516;13.790;2022-10-19T19:26:53;102243.09;;;10.21;74.49
17781;BME280;8498;52.516;13.790;2022-10-19T19:32:16;102238.09;;;10.14;74.55
17781;BME280;8498;52.516;13.790;2022-10-19T19:37:38;102231.38;;;10.05;74.59
17781;BME280;8498;52.516;13.790;2022-10-19T19:43:00;102230.56;;;10.03;74.13
17781;BME280;8498;52.516;13.790;2022-10-19T19:48:23;102237.22;;;9.91;74.40
17781;BME280;8498;52.516;13.790;2022-10-19T19:53:46;102235.75;;;9.84;74.50
17781;BME280;8498;52.516;13.790;2022-10-19T19:59:10;102245.63;;;9.81;74.18
17781;BME280;8498;52.516;13.790;2022-10-19T20:04:33;102243.34;;;9.72;74.44
17781;BME280;8498;52.516;13.790;2022-10-19T20:09:56;102240.91;;;9.66;74.27
17781;BME280;8498;52.516;13.790;2022-10-19T20:15:18;102241.47;;;9.52;74.74
17781;BME280;8498;52.516;13.790;2022-10-19T20:20:41;102243.44;;;9.47;74.88
17781;BME280;8498;52.516;13.790;2022-10-19T20:26:03;102248.22;;;9.37;75.23
17781;BME280;8498;52.516;13.790;2022-10-19T20:31:26;102248.22;;;9.37;74.55
17781;BME280;8498;52.516;13.790;2022-10-19T20:36:53;102242.25;;;9.32;74.65
17781;BME280;8498;52.516;13.790;2022-10-19T20:42:17;102243.50;;;9.22;74.33
17781;BME280;8498;52.516;13.790;2022-10-19T20:47:40;102256.41;;;9.08;74.74
17781;BME280;8498;52.516;13.790;2022-10-19T20:53:02;102263.78;;;9.00;75.56
17781;BME280;8498;52.516;13.790;2022-10-19T20:58:24;102269.94;;;9.00;75.44
17781;BME280;8498;52.516;13.790;2022-10-19T21:03:49;102273.66;;;8.95;75.32
17781;BME280;8498;52.516;13.790;2022-10-19T21:09:15;102270.22;;;8.93;75.02
17781;BME280;8498;52.516;13.790;2022-10-19T21:14:38;102269.53;;;8.88;75.40
17781;BME280;8498;52.516;13.790;2022-10-19T21:20:00;102271.25;;;8.89;75.01
17781;BME280;8498;52.516;13.790;2022-10-19T21:25:22;102278.38;;;8.87;74.89
17781;BME280;8498;52.516;13.790;2022-10-19T21:30:45;102273.19;;;8.83;74.90
17781;BME280;8498;52.516;13.790;2022-10-19T21:36:08;102270.63;;;8.82;74.98
17781;BME280;8498;52.516;13.790;2022-10-19T21:41:31;102270.03;;;8.72;75.25
17781;BME280;8498;52.516;13.790;2022-10-19T21:46:53;102271.09;;;8.68;75.12
17781;BME280;8498;52.516;13.790;2022-10-19T21:52:16;102268.44;;;8.68;75.24
17781;BME280;8498;52.516;13.790;2022-10-19T21:57:38;102267.69;;;8.65;75.17
17781;BME280;8498;52.516;13.790;2022-10-19T22:03:00;102253.59;;;8.63;75.26
17781;BME280;8498;52.516;13.790;2022-10-19T22:08:23;102249.31;;;8.60;75.77
17781;BME280;8498;52.516;13.790;2022-10-19T22:13:46;102248.38;;;8.61;75.93
17781;BME280;8498;52.516;13.790;2022-10-19T22:19:09;102238.56;;;8.63;76.02
17781;BME280;8498;52.516;13.790;2022-10-19T22:24:31;102228.75;;;8.67;75.97
17781;BME280;8498;52.516;13.790;2022-10-19T22:29:55;102220.56;;;8.73;76.25
17781;BME280;8498;52.516;13.790;2022-10-19T22:35:17;102214.00;;;8.83;76.69
17781;BME280;8498;52.516;13.790;2022-10-19T22:40:40;102215.78;;;8.82;76.74
17781;BME280;8498;52.516;13.790;2022-10-19T22:46:02;102219.06;;;8.91;76.29
17781;BME280;8498;52.516;13.790;2022-10-19T22:51:24;102211.84;;;8.94;76.41
17781;BME280;8498;52.516;13.790;2022-10-19T22:56:47;102220.59;;;8.96;76.28
17781;BME280;8498;52.516;13.790;2022-10-19T23:02:09;102221.47;;;8.97;76.18
17781;BME280;8498;52.516;13.790;2022-10-19T23:07:32;102220.06;;;8.87;76.43
17781;BME280;8498;52.516;13.790;2022-10-19T23:12:55;102227.44;;;8.78;76.51
17781;BME280;8498;52.516;13.790;2022-10-19T23:18:18;102226.91;;;8.69;76.22
17781;BME280;8498;52.516;13.790;2022-10-19T23:23:40;102220.94;;;8.62;76.20
17781;BME280;8498;52.516;13.790;2022-10-19T23:29:03;102208.94;;;8.52;76.24
17781;BME280;8498;52.516;13.790;2022-10-19T23:34:25;102205.81;;;8.41;76.06
17781;BME280;8498;52.516;13.790;2022-10-19T23:39:48;102199.81;;;8.36;76.19
17781;BME280;8498;52.516;13.790;2022-10-19T23:45:10;102209.66;;;8.31;76.16
17781;BME280;8498;52.516;13.790;2022-10-19T23:50:34;102208.81;;;8.30;76.56
17781;BME280;8498;52.516;13.790;2022-10-19T23:56:08;102210.56;;;8.31;76.52
